createdAt,value
2018-03-20T00:00:36.941Z,94.79
2018-03-20T00:01:36.912Z,94.51
2018-03-20T00:02:36.892Z,94.89
2018-03-20T00:03:36.884Z,94.98
2018-03-20T00:04:36.845Z,95.92
2018-03-20T00:05:36.852Z,96.11
2018-03-20T00:06:36.804Z,96.30
2018-03-20T00:07:36.767Z,98.47
2018-03-20T00:08:36.752Z,98.75
2018-03-20T00:09:36.732Z,97.91
2018-03-20T00:10:36.713Z,98.57
2018-03-20T00:11:36.731Z,98.00
2018-03-20T00:12:36.666Z,99.98
2018-03-20T00:13:36.675Z,99.99
2018-03-20T00:14:36.617Z,99.99
2018-03-20T00:15:36.597Z,99.70
2018-03-20T00:16:36.588Z,99.70
2018-03-20T00:17:36.542Z,99.99
2018-03-20T00:18:36.525Z,99.98
2018-03-20T00:19:36.507Z,99.88
2018-03-20T00:20:36.492Z,99.70
2018-03-20T00:21:36.467Z,99.04
2018-03-20T00:22:36.434Z,99.13
2018-03-20T00:23:36.408Z,99.51
2018-03-20T00:24:36.386Z,99.60
2018-03-20T00:25:36.367Z,97.72
2018-03-20T00:26:36.341Z,99.99
2018-03-20T00:27:36.328Z,99.99
2018-03-20T00:28:36.296Z,99.99
2018-03-20T00:29:36.277Z,99.99
2018-03-20T00:30:36.245Z,99.99
2018-03-20T00:31:36.232Z,99.99
2018-03-20T00:32:36.195Z,99.99
2018-03-20T00:33:36.173Z,99.99
2018-03-20T00:34:36.156Z,99.99
2018-03-20T00:35:36.165Z,99.99
2018-03-20T00:36:36.118Z,99.99
2018-03-20T00:37:36.086Z,99.99
2018-03-20T00:38:36.066Z,99.99
2018-03-20T00:39:36.073Z,99.99
2018-03-20T00:40:36.019Z,99.99
2018-03-20T00:41:36.018Z,99.99
2018-03-20T00:42:35.977Z,99.99
2018-03-20T00:43:35.955Z,99.99
2018-03-20T00:44:35.923Z,99.99
2018-03-20T00:45:35.897Z,99.99
2018-03-20T00:46:35.871Z,99.99
2018-03-20T00:47:35.862Z,99.99
2018-03-20T00:48:35.824Z,99.99
2018-03-20T00:49:35.828Z,99.99
2018-03-20T00:50:35.776Z,99.99
2018-03-20T00:51:35.792Z,99.41
2018-03-20T00:52:35.732Z,99.99
2018-03-20T00:53:35.732Z,99.99
2018-03-20T00:54:35.697Z,99.99
2018-03-20T00:55:35.700Z,99.98
2018-03-20T00:56:35.636Z,99.79
2018-03-20T00:57:35.616Z,99.32
2018-03-20T00:58:35.589Z,99.22
2018-03-20T00:59:35.575Z,97.62
2018-03-20T01:00:35.555Z,96.72
2018-03-20T01:01:35.518Z,96.25
2018-03-20T01:02:35.503Z,96.25
2018-03-20T01:03:35.484Z,96.44
2018-03-20T01:04:35.462Z,96.44
2018-03-20T01:05:35.426Z,96.53
2018-03-20T01:06:35.407Z,96.06
2018-03-20T01:07:35.383Z,96.53
2018-03-20T01:08:35.364Z,96.44
2018-03-20T01:09:35.345Z,96.25
2018-03-20T01:10:35.315Z,95.97
2018-03-20T01:11:35.299Z,96.44
2018-03-20T01:12:35.280Z,96.25
2018-03-20T01:13:35.268Z,95.97
2018-03-20T01:14:35.226Z,96.25
2018-03-20T01:15:35.226Z,97.85
2018-03-20T01:16:35.168Z,97.76
2018-03-20T01:17:35.165Z,97.95
2018-03-20T01:18:35.148Z,97.67
2018-03-20T01:19:35.122Z,97.19
2018-03-20T01:20:35.071Z,95.97
2018-03-20T01:21:35.065Z,96.25
2018-03-20T01:22:35.068Z,96.25
2018-03-20T01:23:35.021Z,95.78
2018-03-20T01:24:34.990Z,95.97
2018-03-20T01:25:34.965Z,96.81
2018-03-20T01:26:35.344Z,96.91
2018-03-20T01:27:34.913Z,97.19
2018-03-20T01:28:34.903Z,98.99
2018-03-20T01:29:34.888Z,99.99
2018-03-20T01:30:34.843Z,99.99
2018-03-20T01:31:34.837Z,99.99
2018-03-20T01:32:34.797Z,99.99
2018-03-20T01:33:34.782Z,99.99
2018-03-20T01:34:34.750Z,99.99
2018-03-20T01:35:34.756Z,99.99
2018-03-20T01:36:34.715Z,99.99
2018-03-20T01:37:34.686Z,99.99
2018-03-20T01:38:34.661Z,99.99
2018-03-20T01:39:34.645Z,99.99
2018-03-20T01:40:34.609Z,99.99
2018-03-20T01:41:34.590Z,99.99
2018-03-20T01:42:34.566Z,99.99
2018-03-20T01:43:34.542Z,99.99
2018-03-20T01:44:34.526Z,99.99
2018-03-20T01:45:34.507Z,99.99
2018-03-20T01:46:34.491Z,99.99
2018-03-20T01:47:34.448Z,99.99
2018-03-20T01:48:34.430Z,99.99
2018-03-20T01:49:34.401Z,99.99
2018-03-20T01:50:34.368Z,99.99
2018-03-20T01:51:34.356Z,99.99
2018-03-20T01:52:34.332Z,99.99
2018-03-20T01:53:34.318Z,99.99
2018-03-20T01:54:34.275Z,99.99
2018-03-20T01:55:34.269Z,99.99
2018-03-20T01:56:34.250Z,99.99
2018-03-20T01:57:34.218Z,99.99
2018-03-20T01:58:34.194Z,99.99
2018-03-20T01:59:34.175Z,99.99
2018-03-20T02:00:34.146Z,99.99
2018-03-20T02:01:34.120Z,99.99
2018-03-20T02:02:34.104Z,99.99
2018-03-20T02:03:34.078Z,99.99
2018-03-20T02:04:34.040Z,99.99
2018-03-20T02:05:34.031Z,99.99
2018-03-20T02:06:34.003Z,99.99
2018-03-20T02:07:33.986Z,99.99
2018-03-20T02:08:33.958Z,99.99
2018-03-20T02:09:33.947Z,99.99
2018-03-20T02:10:33.906Z,99.99
2018-03-20T02:11:33.912Z,99.99
2018-03-20T02:12:33.863Z,99.99
2018-03-20T02:13:33.867Z,99.99
2018-03-20T02:14:33.836Z,99.99
2018-03-20T02:15:33.806Z,99.99
2018-03-20T02:16:33.775Z,99.99
2018-03-20T02:17:33.739Z,99.99
2018-03-20T02:18:33.731Z,99.99
2018-03-20T02:19:33.727Z,99.99
2018-03-20T02:20:33.669Z,99.99
2018-03-20T02:21:33.644Z,99.99
2018-03-20T02:22:33.629Z,99.99
2018-03-20T02:23:33.605Z,99.99
2018-03-20T02:24:33.584Z,99.99
2018-03-20T02:25:33.552Z,99.99
2018-03-20T02:26:33.523Z,99.99
2018-03-20T02:27:33.511Z,99.99
2018-03-20T02:28:33.481Z,99.99
2018-03-20T02:29:33.455Z,99.99
2018-03-20T02:30:33.441Z,99.99
2018-03-20T02:31:33.421Z,99.99
2018-03-20T02:32:33.381Z,99.99
2018-03-20T02:33:33.377Z,99.99
2018-03-20T02:34:33.341Z,99.99
2018-03-20T02:35:33.326Z,99.99
2018-03-20T02:36:33.297Z,99.99
2018-03-20T02:37:33.273Z,99.99
2018-03-20T02:38:33.244Z,99.99
2018-03-20T02:39:33.222Z,99.99
2018-03-20T02:40:33.205Z,99.99
2018-03-20T02:41:33.177Z,99.99
2018-03-20T02:42:33.148Z,99.99
2018-03-20T02:43:33.149Z,99.99
2018-03-20T02:44:33.102Z,99.99
2018-03-20T02:45:33.078Z,99.99
2018-03-20T02:46:33.059Z,99.99
2018-03-20T02:47:33.031Z,99.99
2018-03-20T02:48:33.008Z,99.99
2018-03-20T02:49:32.993Z,99.99
2018-03-20T02:50:32.958Z,99.99
2018-03-20T02:51:32.942Z,99.99
2018-03-20T02:52:32.911Z,99.99
2018-03-20T02:53:32.888Z,99.99
2018-03-20T02:54:32.871Z,99.99
2018-03-20T02:55:32.864Z,99.99
2018-03-20T02:56:32.817Z,99.99
2018-03-20T02:57:32.796Z,99.99
2018-03-20T02:58:32.762Z,99.99
2018-03-20T02:59:32.752Z,99.99
2018-03-20T03:00:32.730Z,99.99
2018-03-20T03:01:32.702Z,99.99
2018-03-20T03:02:32.672Z,99.99
2018-03-20T03:03:32.654Z,99.99
2018-03-20T03:04:32.638Z,99.99
2018-03-20T03:05:32.600Z,99.99
2018-03-20T03:06:32.584Z,99.99
2018-03-20T03:07:32.556Z,99.99
2018-03-20T03:08:32.534Z,99.99
2018-03-20T03:09:32.498Z,99.99
2018-03-20T03:10:32.479Z,99.99
2018-03-20T03:11:32.472Z,99.99
2018-03-20T03:12:32.472Z,99.99
2018-03-20T03:13:32.431Z,99.99
2018-03-20T03:14:32.389Z,99.99
2018-03-20T03:15:32.366Z,99.99
2018-03-20T03:16:32.347Z,99.99
2018-03-20T03:17:32.314Z,99.99
2018-03-20T03:18:32.287Z,99.99
2018-03-20T03:19:32.303Z,99.99
2018-03-20T03:20:32.255Z,99.99
2018-03-20T03:21:32.229Z,99.99
2018-03-20T03:22:32.200Z,99.99
2018-03-20T03:23:32.174Z,99.99
2018-03-20T03:24:32.158Z,99.99
2018-03-20T03:25:32.123Z,99.99
2018-03-20T03:26:32.104Z,99.99
2018-03-20T03:27:32.068Z,99.99
2018-03-20T03:28:32.057Z,99.99
2018-03-20T03:29:32.033Z,99.99
2018-03-20T03:30:32.019Z,99.99
2018-03-20T03:31:31.985Z,99.99
2018-03-20T03:32:31.982Z,99.99
2018-03-20T03:33:31.931Z,99.99
2018-03-20T03:34:31.930Z,99.99
2018-03-20T03:35:31.879Z,99.99
2018-03-20T03:36:31.863Z,99.99
2018-03-20T03:37:31.834Z,99.99
2018-03-20T03:38:31.818Z,99.99
2018-03-20T03:39:31.788Z,99.99
2018-03-20T03:40:31.775Z,99.99
2018-03-20T03:41:31.740Z,99.99
2018-03-20T03:42:31.721Z,99.99
2018-03-20T03:43:31.692Z,99.99
2018-03-20T03:44:31.667Z,99.99
2018-03-20T03:45:31.641Z,99.99
2018-03-20T03:46:31.620Z,99.99
2018-03-20T03:47:31.589Z,99.99
2018-03-20T03:48:31.564Z,99.99
2018-03-20T03:49:31.601Z,99.99
2018-03-20T03:50:31.516Z,99.99
2018-03-20T03:51:31.500Z,99.99
2018-03-20T03:52:31.468Z,99.99
2018-03-20T03:53:31.456Z,99.99
2018-03-20T03:54:31.433Z,99.99
2018-03-20T03:55:31.401Z,99.99
2018-03-20T03:56:31.373Z,99.99
2018-03-20T03:57:31.360Z,99.99
2018-03-20T03:58:31.329Z,99.99
2018-03-20T03:59:31.302Z,99.99
2018-03-20T04:00:31.275Z,99.99
2018-03-20T04:01:31.251Z,99.99
2018-03-20T04:02:31.228Z,99.99
2018-03-20T04:03:31.206Z,99.99
2018-03-20T04:04:31.185Z,99.99
2018-03-20T04:05:31.159Z,99.99
2018-03-20T04:06:31.133Z,99.99
2018-03-20T04:07:31.107Z,99.99
2018-03-20T04:08:31.085Z,99.99
2018-03-20T04:09:31.060Z,99.99
2018-03-20T04:10:31.037Z,99.99
2018-03-20T04:11:31.012Z,99.99
2018-03-20T04:12:30.993Z,99.99
2018-03-20T04:13:30.971Z,99.99
2018-03-20T04:14:30.965Z,99.99
2018-03-20T04:15:30.923Z,99.99
2018-03-20T04:16:30.897Z,99.99
2018-03-20T04:17:30.878Z,99.99
2018-03-20T04:18:30.845Z,99.99
2018-03-20T04:19:30.817Z,99.99
2018-03-20T04:20:30.797Z,99.99
2018-03-20T04:21:30.765Z,99.99
2018-03-20T04:22:30.750Z,99.99
2018-03-20T04:23:30.717Z,99.99
2018-03-20T04:24:30.698Z,99.99
2018-03-20T04:25:30.678Z,99.99
2018-03-20T04:26:30.651Z,99.99
2018-03-20T04:27:30.629Z,99.99
2018-03-20T04:28:30.600Z,99.99
2018-03-20T04:29:30.583Z,99.99
2018-03-20T04:30:30.565Z,99.99
2018-03-20T04:31:30.522Z,99.99
2018-03-20T04:32:30.506Z,99.99
2018-03-20T04:33:30.478Z,99.99
2018-03-20T04:34:30.452Z,99.99
2018-03-20T04:35:30.443Z,99.99
2018-03-20T04:36:30.430Z,99.99
2018-03-20T04:37:30.378Z,99.99
2018-03-20T04:38:30.356Z,99.99
2018-03-20T04:39:30.340Z,99.99
2018-03-20T04:40:30.308Z,99.99
2018-03-20T04:41:30.285Z,99.99
2018-03-20T04:42:30.260Z,99.99
2018-03-20T04:43:30.241Z,99.99
2018-03-20T04:44:30.205Z,99.99
2018-03-20T04:45:30.194Z,99.99
2018-03-20T04:46:30.159Z,99.99
2018-03-20T04:47:30.133Z,99.99
2018-03-20T04:48:30.108Z,99.99
2018-03-20T04:49:30.095Z,99.99
2018-03-20T04:50:30.069Z,99.99
2018-03-20T04:51:30.048Z,99.99
2018-03-20T04:52:30.020Z,99.99
2018-03-20T04:53:29.996Z,99.99
2018-03-20T04:54:29.964Z,99.99
2018-03-20T04:55:29.945Z,99.99
2018-03-20T04:56:29.922Z,99.99
2018-03-20T04:57:29.899Z,99.99
2018-03-20T04:58:29.865Z,99.99
2018-03-20T04:59:29.852Z,99.99
2018-03-20T05:00:29.842Z,99.99
2018-03-20T05:01:29.797Z,99.99
2018-03-20T05:02:29.771Z,99.99
2018-03-20T05:03:29.747Z,99.99
2018-03-20T05:04:29.752Z,99.99
2018-03-20T05:05:29.695Z,99.99
2018-03-20T05:06:29.675Z,99.99
2018-03-20T05:07:29.647Z,99.99
2018-03-20T05:08:29.615Z,99.99
2018-03-20T05:09:29.595Z,99.99
2018-03-20T05:10:29.585Z,99.99
2018-03-20T05:11:29.553Z,99.99
2018-03-20T05:12:29.530Z,99.99
2018-03-20T05:13:29.502Z,99.99
2018-03-20T05:14:29.473Z,99.99
2018-03-20T05:15:29.445Z,99.99
2018-03-20T05:16:29.428Z,99.99
2018-03-20T05:17:29.406Z,99.99
2018-03-20T05:18:29.386Z,99.99
2018-03-20T05:19:29.369Z,99.99
2018-03-20T05:20:29.331Z,99.99
2018-03-20T05:21:29.340Z,99.99
2018-03-20T05:22:29.292Z,99.99
2018-03-20T05:23:29.267Z,99.99
2018-03-20T05:24:29.237Z,99.99
2018-03-20T05:25:29.216Z,99.99
2018-03-20T05:26:29.244Z,99.99
2018-03-20T05:27:29.167Z,99.99
2018-03-20T05:28:29.142Z,99.99
2018-03-20T05:29:29.113Z,99.99
2018-03-20T05:30:29.104Z,99.99
2018-03-20T05:31:29.072Z,99.99
2018-03-20T05:32:29.037Z,99.99
2018-03-20T05:33:29.014Z,99.99
2018-03-20T05:34:29.013Z,99.99
2018-03-20T05:35:28.976Z,99.99
2018-03-20T05:36:28.944Z,99.99
2018-03-20T05:37:28.929Z,99.99
2018-03-20T05:38:28.929Z,99.99
2018-03-20T05:39:28.872Z,99.99
2018-03-20T05:40:28.846Z,99.99
2018-03-20T05:41:28.820Z,99.99
2018-03-20T05:42:28.816Z,99.99
2018-03-20T05:43:28.791Z,99.99
2018-03-20T05:44:28.747Z,99.99
2018-03-20T05:45:28.714Z,99.99
2018-03-20T05:46:28.712Z,99.99
2018-03-20T05:47:28.672Z,99.99
2018-03-20T05:48:28.641Z,99.99
2018-03-20T05:49:28.641Z,99.99
2018-03-20T05:50:28.600Z,99.99
2018-03-20T05:51:28.571Z,99.99
2018-03-20T05:52:28.549Z,99.99
2018-03-20T05:53:28.542Z,99.99
2018-03-20T05:54:28.518Z,99.99
2018-03-20T05:55:28.475Z,99.99
2018-03-20T05:56:28.472Z,99.99
2018-03-20T05:57:28.422Z,99.99
2018-03-20T05:58:28.420Z,99.99
2018-03-20T05:59:28.378Z,99.99
2018-03-20T06:00:28.369Z,99.99
2018-03-20T06:01:28.324Z,99.99
2018-03-20T06:02:28.320Z,99.99
2018-03-20T06:03:28.282Z,99.99
2018-03-20T06:04:28.250Z,99.99
2018-03-20T06:05:28.234Z,99.99
2018-03-20T06:06:28.241Z,99.99
2018-03-20T06:07:28.184Z,99.99
2018-03-20T06:08:28.155Z,99.99
2018-03-20T06:09:28.139Z,99.99
2018-03-20T06:10:28.104Z,99.99
2018-03-20T06:11:28.078Z,99.99
2018-03-20T06:12:28.072Z,99.99
2018-03-20T06:13:28.059Z,99.99
2018-03-20T06:14:28.024Z,99.99
2018-03-20T06:15:27.984Z,99.99
2018-03-20T06:16:27.959Z,99.99
2018-03-20T06:17:27.940Z,99.99
2018-03-20T06:18:27.911Z,99.99
2018-03-20T06:19:27.895Z,99.99
2018-03-20T06:20:27.871Z,99.99
2018-03-20T06:21:27.856Z,99.99
2018-03-20T06:22:27.807Z,99.99
2018-03-20T06:23:27.806Z,99.99
2018-03-20T06:24:27.762Z,99.99
2018-03-20T06:25:27.743Z,99.99
2018-03-20T06:26:27.781Z,99.99
2018-03-20T06:27:27.699Z,99.99
2018-03-20T06:28:27.675Z,99.99
2018-03-20T06:29:27.647Z,99.99
2018-03-20T06:30:27.622Z,99.99
2018-03-20T06:31:27.593Z,99.99
2018-03-20T06:32:27.574Z,99.99
2018-03-20T06:33:27.545Z,99.99
2018-03-20T06:34:27.523Z,99.99
2018-03-20T06:35:27.508Z,99.99
2018-03-20T06:36:27.487Z,99.99
2018-03-20T06:37:27.456Z,99.99
2018-03-20T06:38:27.427Z,99.99
2018-03-20T06:39:27.407Z,99.99
2018-03-20T06:40:27.385Z,99.99
2018-03-20T06:41:27.359Z,99.99
2018-03-20T06:42:27.333Z,99.99
2018-03-20T06:43:27.333Z,99.99
2018-03-20T06:44:27.286Z,99.99
2018-03-20T06:45:27.278Z,99.99
2018-03-20T06:46:27.256Z,99.99
2018-03-20T06:47:27.211Z,99.99
2018-03-20T06:48:27.215Z,99.99
2018-03-20T06:49:27.194Z,99.99
2018-03-20T06:50:27.138Z,99.99
2018-03-20T06:51:27.118Z,99.99
2018-03-20T06:52:27.089Z,99.88
2018-03-20T06:53:27.092Z,99.13
2018-03-20T06:54:27.047Z,98.18
2018-03-20T06:55:27.032Z,97.90
2018-03-20T06:56:27.015Z,98.75
2018-03-20T06:57:26.992Z,99.22
2018-03-20T06:58:26.949Z,99.99
2018-03-20T06:59:26.990Z,99.99
2018-03-20T07:00:26.898Z,99.79
2018-03-20T07:01:26.873Z,99.03
2018-03-20T07:02:26.849Z,98.47
2018-03-20T07:03:26.828Z,98.65
2018-03-20T07:04:26.834Z,99.99
2018-03-20T07:05:26.781Z,99.99
2018-03-20T07:06:26.775Z,99.99
2018-03-20T07:07:26.767Z,99.99
2018-03-20T07:08:26.723Z,99.99
2018-03-20T07:09:26.692Z,99.99
2018-03-20T07:10:26.666Z,99.99
2018-03-20T07:11:26.656Z,99.99
2018-03-20T07:12:26.615Z,99.55
2018-03-20T07:13:26.605Z,98.80
2018-03-20T07:14:26.558Z,98.42
2018-03-20T07:15:26.538Z,99.08
2018-03-20T07:16:26.554Z,98.14
2018-03-20T07:17:26.496Z,98.23
2018-03-20T07:18:26.471Z,98.14
2018-03-20T07:19:26.449Z,98.14
2018-03-20T07:20:26.429Z,99.18
2018-03-20T07:21:26.407Z,99.93
2018-03-20T07:22:26.386Z,99.65
2018-03-20T07:23:26.376Z,99.93
2018-03-20T07:24:26.341Z,98.71
2018-03-20T07:25:26.308Z,98.66
2018-03-20T07:26:26.299Z,98.71
2018-03-20T07:27:26.312Z,99.88
2018-03-20T07:28:26.280Z,98.47
2018-03-20T07:29:26.230Z,96.96
2018-03-20T07:30:26.194Z,94.41
2018-03-20T07:31:26.175Z,94.79
2018-03-20T07:32:26.142Z,94.41
2018-03-20T07:33:26.140Z,93.66
2018-03-20T07:34:26.173Z,92.52
2018-03-20T07:35:26.082Z,92.61
2018-03-20T07:36:26.057Z,93.56
2018-03-20T07:37:26.031Z,93.56
2018-03-20T07:38:26.016Z,92.05
2018-03-20T07:39:25.995Z,92.14
2018-03-20T07:40:25.970Z,91.86
2018-03-20T07:41:25.950Z,92.29
2018-03-20T07:42:25.914Z,91.91
2018-03-20T07:43:25.898Z,91.06
2018-03-20T07:44:25.889Z,91.25
2018-03-20T07:45:25.848Z,91.63
2018-03-20T07:46:25.854Z,90.96
2018-03-20T07:47:25.819Z,90.96
2018-03-20T07:48:25.791Z,90.49
2018-03-20T07:49:25.803Z,87.47
2018-03-20T07:50:25.744Z,86.71
2018-03-20T07:51:25.723Z,87.37
2018-03-20T07:52:25.740Z,86.71
2018-03-20T07:53:25.705Z,86.43
2018-03-20T07:54:25.656Z,85.49
2018-03-20T07:55:25.653Z,86.29
2018-03-20T07:56:25.641Z,87.51
2018-03-20T07:57:25.586Z,87.70
2018-03-20T07:58:25.595Z,87.79
2018-03-20T07:59:25.543Z,86.76
2018-03-20T08:00:25.521Z,88.27
2018-03-20T08:01:25.521Z,85.91
2018-03-20T08:02:25.496Z,84.68
2018-03-20T08:03:25.470Z,82.41
2018-03-20T08:04:25.470Z,81.46
2018-03-20T08:05:25.416Z,81.09
2018-03-20T08:06:25.417Z,80.43
2018-03-20T08:07:25.382Z,82.12
2018-03-20T08:08:25.361Z,85.24
2018-03-20T08:09:25.340Z,83.07
2018-03-20T08:10:25.302Z,82.79
2018-03-20T08:11:25.293Z,83.92
2018-03-20T08:12:25.265Z,84.44
2018-03-20T08:13:25.242Z,82.98
2018-03-20T08:14:25.243Z,82.64
2018-03-20T08:15:25.203Z,81.70
2018-03-20T08:16:25.190Z,84.81
2018-03-20T08:17:25.174Z,82.64
2018-03-20T08:18:25.152Z,81.98
2018-03-20T08:19:25.218Z,81.22
2018-03-20T08:20:25.119Z,79.90
2018-03-20T08:21:25.069Z,81.79
2018-03-20T08:22:25.075Z,81.79
2018-03-20T08:23:25.036Z,81.41
2018-03-20T08:24:25.027Z,80.84
2018-03-20T08:25:25.014Z,79.90
2018-03-20T08:26:24.970Z,81.03
2018-03-20T08:27:24.971Z,82.54
2018-03-20T08:28:24.956Z,83.21
2018-03-20T08:29:24.931Z,79.43
2018-03-20T08:30:24.908Z,78.01
2018-03-20T08:31:24.883Z,77.53
2018-03-20T08:32:24.848Z,78.67
2018-03-20T08:33:24.832Z,78.10
2018-03-20T08:34:24.813Z,77.53
2018-03-20T08:35:24.809Z,76.31
2018-03-20T08:36:24.773Z,77.15
2018-03-20T08:37:24.754Z,78.10
2018-03-20T08:38:24.725Z,77.82
2018-03-20T08:39:24.699Z,77.91
2018-03-20T08:40:24.684Z,77.91
2018-03-20T08:41:24.658Z,77.15
2018-03-20T08:42:24.642Z,74.98
2018-03-20T08:43:24.623Z,74.60
2018-03-20T08:44:24.663Z,73.85
2018-03-20T08:45:24.604Z,74.98
2018-03-20T08:46:24.564Z,75.45
2018-03-20T08:47:24.545Z,75.74
2018-03-20T08:48:24.526Z,74.60
2018-03-20T08:49:24.525Z,74.41
2018-03-20T08:50:24.484Z,75.45
2018-03-20T08:51:24.468Z,76.87
2018-03-20T08:52:24.458Z,75.17
2018-03-20T08:53:24.413Z,74.79
2018-03-20T08:54:24.413Z,75.45
2018-03-20T08:55:24.394Z,76.68
2018-03-20T08:56:24.363Z,76.12
2018-03-20T08:57:24.353Z,77.91
2018-03-20T08:58:24.314Z,78.29
2018-03-20T08:59:24.309Z,78.67
2018-03-20T09:00:24.270Z,78.10
2018-03-20T09:01:24.257Z,78.20
2018-03-20T09:02:24.250Z,77.72
2018-03-20T09:03:24.215Z,77.15
2018-03-20T09:04:24.222Z,78.20
2018-03-20T09:05:24.190Z,76.97
2018-03-20T09:06:24.192Z,77.91
2018-03-20T09:07:24.142Z,77.53
2018-03-20T09:08:24.106Z,77.53
2018-03-20T09:09:24.148Z,78.10
2018-03-20T09:10:24.068Z,78.39
2018-03-20T09:11:24.040Z,79.61
2018-03-20T09:12:24.104Z,80.37
2018-03-20T09:13:24.002Z,79.80
2018-03-20T09:14:23.980Z,81.22
2018-03-20T09:15:23.976Z,80.75
2018-03-20T09:16:23.941Z,81.41
2018-03-20T09:17:23.917Z,83.02
2018-03-20T09:18:23.900Z,83.21
2018-03-20T09:19:23.880Z,79.24
2018-03-20T09:20:23.861Z,79.24
2018-03-20T09:21:23.842Z,79.90
2018-03-20T09:22:23.806Z,79.61
2018-03-20T09:23:23.792Z,80.18
2018-03-20T09:24:23.763Z,82.26
2018-03-20T09:25:23.772Z,81.79
2018-03-20T09:26:23.747Z,81.98
2018-03-20T09:27:23.711Z,82.26
2018-03-20T09:28:23.682Z,83.49
2018-03-20T09:29:23.665Z,83.44
2018-03-20T09:30:23.647Z,83.49
2018-03-20T09:31:23.622Z,83.06
2018-03-20T09:32:23.625Z,83.06
2018-03-20T09:33:23.586Z,81.17
2018-03-20T09:34:23.571Z,79.66
2018-03-20T09:35:23.537Z,78.05
2018-03-20T09:36:23.518Z,78.05
2018-03-20T09:37:23.490Z,78.52
2018-03-20T09:38:23.477Z,78.20
2018-03-20T09:39:23.461Z,78.29
2018-03-20T09:40:23.463Z,79.05
2018-03-20T09:41:23.429Z,79.90
2018-03-20T09:42:23.403Z,81.22
2018-03-20T09:43:23.439Z,80.75
2018-03-20T09:44:23.353Z,80.75
2018-03-20T09:45:23.334Z,81.22
2018-03-20T09:46:23.321Z,83.78
2018-03-20T09:47:23.295Z,84.53
2018-03-20T09:48:23.289Z,85.85
2018-03-20T09:49:23.270Z,87.74
2018-03-20T09:50:23.219Z,88.88
2018-03-20T09:51:23.199Z,90.86
2018-03-20T09:52:23.182Z,91.81
2018-03-20T09:53:23.153Z,91.96
2018-03-20T09:54:23.163Z,93.84
2018-03-20T09:55:23.116Z,95.64
2018-03-20T09:56:23.106Z,97.72
2018-03-20T09:57:23.078Z,97.25
2018-03-20T09:58:23.057Z,98.76
2018-03-20T09:59:23.054Z,99.14
2018-03-20T10:00:23.037Z,98.43
2018-03-20T10:01:23.016Z,98.62
2018-03-20T10:02:22.970Z,97.86
2018-03-20T10:03:22.951Z,96.64
2018-03-20T10:04:22.925Z,95.73
2018-03-20T10:05:22.912Z,96.40
2018-03-20T10:06:22.884Z,98.05
2018-03-20T10:07:22.868Z,97.96
2018-03-20T10:08:22.864Z,98.05
2018-03-20T10:09:22.829Z,99.19
2018-03-20T10:10:22.800Z,98.33
2018-03-20T10:11:22.784Z,96.45
2018-03-20T10:12:22.752Z,97.39
2018-03-20T10:13:22.755Z,98.57
2018-03-20T10:14:22.720Z,98.00
2018-03-20T10:15:22.692Z,98.19
2018-03-20T10:16:22.701Z,99.80
2018-03-20T10:17:22.669Z,99.99
2018-03-20T10:18:22.628Z,99.99
2018-03-20T10:19:22.612Z,99.99
2018-03-20T10:20:22.604Z,99.99
2018-03-20T10:21:22.556Z,99.99
2018-03-20T10:22:22.538Z,99.99
2018-03-20T10:23:22.547Z,99.99
2018-03-20T10:24:22.506Z,99.28
2018-03-20T10:25:22.500Z,99.47
2018-03-20T10:26:22.454Z,99.99
2018-03-20T10:27:22.445Z,99.99
2018-03-20T10:28:22.419Z,99.99
2018-03-20T10:29:22.390Z,99.99
2018-03-20T10:30:22.407Z,99.99
2018-03-20T10:31:22.367Z,99.28
2018-03-20T10:32:22.348Z,98.62
2018-03-20T10:33:22.329Z,99.47
2018-03-20T10:34:22.284Z,99.71
2018-03-20T10:35:22.269Z,99.05
2018-03-20T10:36:22.247Z,99.15
2018-03-20T10:37:22.227Z,97.34
2018-03-20T10:38:22.209Z,97.25
2018-03-20T10:39:22.183Z,96.88
2018-03-20T10:40:22.169Z,96.02
2018-03-20T10:41:22.139Z,96.73
2018-03-20T10:42:22.120Z,96.73
2018-03-20T10:43:22.103Z,96.45
2018-03-20T10:44:22.113Z,97.20
2018-03-20T10:45:22.055Z,98.24
2018-03-20T10:46:22.045Z,98.14
2018-03-20T10:47:22.023Z,98.24
2018-03-20T10:48:21.992Z,98.14
2018-03-20T10:49:21.969Z,97.20
2018-03-20T10:50:21.947Z,97.01
2018-03-20T10:51:21.946Z,97.30
2018-03-20T10:52:21.908Z,98.33
2018-03-20T10:53:21.924Z,97.58
2018-03-20T10:54:21.886Z,97.86
2018-03-20T10:55:21.854Z,99.28
2018-03-20T10:56:21.838Z,99.66
2018-03-20T10:57:21.810Z,98.43
2018-03-20T10:58:21.786Z,98.90
2018-03-20T10:59:21.787Z,99.85
2018-03-20T11:00:21.771Z,99.19
2018-03-20T11:01:21.733Z,97.77
2018-03-20T11:02:21.729Z,98.33
2018-03-20T11:03:21.714Z,97.39
2018-03-20T11:04:21.656Z,98.43
2018-03-20T11:05:21.656Z,98.24
2018-03-20T11:06:21.634Z,96.73
2018-03-20T11:07:21.590Z,98.62
2018-03-20T11:08:21.590Z,98.14
2018-03-20T11:09:21.548Z,97.49
2018-03-20T11:10:21.535Z,96.35
2018-03-20T11:11:21.525Z,95.88
2018-03-20T11:12:21.493Z,97.30
2018-03-20T11:13:21.475Z,98.29
2018-03-20T11:14:21.468Z,99.24
2018-03-20T11:15:21.465Z,97.91
2018-03-20T11:16:21.404Z,96.31
2018-03-20T11:17:21.386Z,96.31
2018-03-20T11:18:21.360Z,99.05
2018-03-20T11:19:21.347Z,99.71
2018-03-20T11:20:21.321Z,98.77
2018-03-20T11:21:21.302Z,97.34
2018-03-20T11:22:21.299Z,97.44
2018-03-20T11:23:21.257Z,96.40
2018-03-20T11:24:21.242Z,95.07
2018-03-20T11:25:21.222Z,95.74
2018-03-20T11:26:21.189Z,95.36
2018-03-20T11:27:21.199Z,96.12
2018-03-20T11:28:21.173Z,96.69
2018-03-20T11:29:21.138Z,96.50
2018-03-20T11:30:21.103Z,96.69
2018-03-20T11:31:21.125Z,95.93
2018-03-20T11:32:21.073Z,95.55
2018-03-20T11:33:21.051Z,95.55
2018-03-20T11:34:21.032Z,94.42
2018-03-20T11:35:21.019Z,95.26
2018-03-20T11:36:20.985Z,94.60
2018-03-20T11:37:20.973Z,93.66
2018-03-20T11:38:20.950Z,94.98
2018-03-20T11:39:20.921Z,94.46
2018-03-20T11:40:20.898Z,91.24
2018-03-20T11:41:20.902Z,90.11
2018-03-20T11:42:20.886Z,90.58
2018-03-20T11:43:20.843Z,90.20
2018-03-20T11:44:20.815Z,91.05
2018-03-20T11:45:20.799Z,92.19
2018-03-20T11:46:20.796Z,90.77
2018-03-20T11:47:20.771Z,88.78
2018-03-20T11:48:20.735Z,90.67
2018-03-20T11:49:20.736Z,90.77
2018-03-20T11:50:20.729Z,88.93
2018-03-20T11:51:20.694Z,90.72
2018-03-20T11:52:20.652Z,91.53
2018-03-20T11:53:20.636Z,92.10
2018-03-20T11:54:20.639Z,90.77
2018-03-20T11:55:20.607Z,90.01
2018-03-20T11:56:20.577Z,91.43
2018-03-20T11:57:20.561Z,91.24
2018-03-20T11:58:20.529Z,91.05
2018-03-20T11:59:20.516Z,90.48
2018-03-20T12:00:20.519Z,89.35
2018-03-20T12:01:20.500Z,90.58
2018-03-20T12:02:20.448Z,90.96
2018-03-20T12:03:20.433Z,90.30
2018-03-20T12:04:20.427Z,89.44
2018-03-20T12:05:20.400Z,90.39
2018-03-20T12:06:20.378Z,87.93
2018-03-20T12:07:20.357Z,87.55
2018-03-20T12:08:20.327Z,87.08
2018-03-20T12:09:20.327Z,86.41
2018-03-20T12:10:20.295Z,86.70
2018-03-20T12:11:20.279Z,85.94
2018-03-20T12:12:20.301Z,85.75
2018-03-20T12:13:20.234Z,85.85
2018-03-20T12:14:20.244Z,86.79
2018-03-20T12:15:20.199Z,86.89
2018-03-20T12:16:20.180Z,86.41
2018-03-20T12:17:20.173Z,87.17
2018-03-20T12:18:20.144Z,89.25
2018-03-20T12:19:20.136Z,87.93
2018-03-20T12:20:20.106Z,88.12
2018-03-20T12:21:20.083Z,89.25
2018-03-20T12:22:20.054Z,88.59
2018-03-20T12:23:20.045Z,88.68
2018-03-20T12:24:20.032Z,87.27
2018-03-20T12:25:20.151Z,89.16
2018-03-20T12:26:19.990Z,90.39
2018-03-20T12:27:19.965Z,91.15
2018-03-20T12:28:19.942Z,89.92
2018-03-20T12:29:19.920Z,90.30
2018-03-20T12:30:19.894Z,90.86
2018-03-20T12:31:19.878Z,89.73
2018-03-20T12:32:19.862Z,90.20
2018-03-20T12:33:19.836Z,90.86
2018-03-20T12:34:19.826Z,90.30
2018-03-20T12:35:19.793Z,88.59
2018-03-20T12:36:19.793Z,88.59
2018-03-20T12:37:19.749Z,86.79
2018-03-20T12:38:19.732Z,85.75
2018-03-20T12:39:19.716Z,85.57
2018-03-20T12:40:19.710Z,85.47
2018-03-20T12:41:19.681Z,84.52
2018-03-20T12:42:19.675Z,84.33
2018-03-20T12:43:19.634Z,85.66
2018-03-20T12:44:19.609Z,85.28
2018-03-20T12:45:19.595Z,84.90
2018-03-20T12:46:19.572Z,87.36
2018-03-20T12:47:19.556Z,87.93
2018-03-20T12:48:19.534Z,85.57
2018-03-20T12:49:19.530Z,85.19
2018-03-20T12:50:19.486Z,85.75
2018-03-20T12:51:19.476Z,86.32
2018-03-20T12:52:19.464Z,88.49